createdAt,value
2022-12-11T00:02:04.850Z,94458.72
2022-12-11T00:04:33.296Z,94457.50
2022-12-11T00:07:01.218Z,94456.91
2022-12-11T00:09:29.156Z,94463.00
2022-12-11T00:11:56.962Z,94466.53
2022-12-11T00:14:26.256Z,94459.91
2022-12-11T00:16:54.230Z,94468.56
2022-12-11T00:19:22.077Z,94462.91
2022-12-11T00:21:50.009Z,94461.44
2022-12-11T00:24:17.913Z,94454.38
2022-12-11T00:26:45.852Z,94455.34
2022-12-11T00:29:15.808Z,94452.50
2022-12-11T00:31:45.055Z,94454.56
2022-12-11T00:34:13.019Z,94450.41
2022-12-11T00:36:41.022Z,94447.97
2022-12-11T00:39:08.817Z,94446.44
2022-12-11T00:41:36.673Z,94450.47
2022-12-11T00:44:04.741Z,94444.44
2022-12-11T00:46:32.731Z,94443.78
2022-12-11T00:49:01.943Z,94447.28
2022-12-11T00:51:29.854Z,94447.06
2022-12-11T00:53:57.809Z,94450.78
2022-12-11T00:56:25.612Z,94447.66
2022-12-11T00:58:53.577Z,94453.63
2022-12-11T01:01:22.774Z,94452.22
2022-12-11T01:03:51.129Z,94456.00
2022-12-11T01:06:21.491Z,94451.75
2022-12-11T01:09:09.792Z,94463.59
2022-12-11T01:11:37.165Z,94463.50
2022-12-11T01:14:05.332Z,94454.06
2022-12-11T01:16:33.804Z,94461.97
2022-12-11T01:19:01.794Z,94456.66
2022-12-11T01:21:31.125Z,94460.28
2022-12-11T01:23:58.929Z,94471.56
2022-12-11T01:26:26.851Z,94468.16
2022-12-11T01:28:54.625Z,94468.78
2022-12-11T01:31:23.163Z,94473.88
2022-12-11T01:33:51.096Z,94477.28
2022-12-11T01:36:19.988Z,94483.47
2022-12-11T01:38:49.652Z,94478.84
2022-12-11T01:41:18.139Z,94481.06
2022-12-11T01:44:02.544Z,94477.25
2022-12-11T01:46:31.280Z,94483.00
2022-12-11T01:49:00.166Z,94489.78
2022-12-11T01:51:29.554Z,94486.78
2022-12-11T01:54:00.317Z,94479.41
2022-12-11T01:56:28.551Z,94479.28
2022-12-11T01:59:00.130Z,94480.09
2022-12-11T02:01:32.356Z,94478.31
2022-12-11T02:04:00.893Z,94482.06
2022-12-11T02:06:31.193Z,94468.06
2022-12-11T02:09:00.824Z,94473.47
2022-12-11T02:11:32.635Z,94479.81
2022-12-11T02:14:04.863Z,94477.25
2022-12-11T02:16:38.990Z,94476.19
2022-12-11T02:19:11.978Z,94474.06
2022-12-11T02:21:42.462Z,94471.72
2022-12-11T02:24:26.112Z,94478.06
2022-12-11T02:27:12.562Z,94476.28
2022-12-11T02:29:47.099Z,94475.69
2022-12-11T02:32:17.637Z,94482.50
2022-12-11T02:34:48.224Z,94484.72
2022-12-11T02:37:17.637Z,94482.41
2022-12-11T02:39:46.665Z,94473.81
2022-12-11T02:42:16.264Z,94481.13
2022-12-11T02:44:46.414Z,94474.09
2022-12-11T02:47:16.000Z,94483.78
2022-12-11T02:49:45.789Z,94485.72
2022-12-11T02:52:15.729Z,94477.19
2022-12-11T02:54:44.607Z,94479.78
2022-12-11T02:57:15.760Z,94479.91
2022-12-11T02:59:46.160Z,94478.59
2022-12-11T03:02:14.902Z,94475.41
2022-12-11T03:04:43.243Z,94479.72
2022-12-11T03:07:15.859Z,94476.63
2022-12-11T03:09:44.856Z,94483.22
2022-12-11T03:12:15.459Z,94481.22
2022-12-11T03:14:43.745Z,94476.75
2022-12-11T03:17:16.200Z,94485.00
2022-12-11T03:19:48.807Z,94492.31
2022-12-11T03:22:20.066Z,94491.63
2022-12-11T03:24:51.501Z,94488.72
2022-12-11T03:27:23.592Z,94478.81
2022-12-11T03:29:55.852Z,94476.31
2022-12-11T03:32:28.293Z,94480.19
2022-12-11T03:35:10.251Z,94491.19
2022-12-11T03:37:40.513Z,94490.31
2022-12-11T03:40:11.311Z,94494.31
2022-12-11T03:42:39.933Z,94497.78
2022-12-11T03:45:09.314Z,94503.59
2022-12-11T03:47:39.372Z,94505.88
2022-12-11T03:50:08.796Z,94507.78
2022-12-11T03:52:39.731Z,94512.56
2022-12-11T03:55:13.873Z,94508.81
2022-12-11T03:57:41.734Z,94507.94
2022-12-11T04:00:11.312Z,94511.75
2022-12-11T04:02:43.344Z,94508.47
2022-12-11T04:05:12.041Z,94509.91
2022-12-11T04:07:40.267Z,94505.00
2022-12-11T04:10:08.442Z,94498.50
2022-12-11T04:12:36.418Z,94501.16
2022-12-11T04:15:03.358Z,94499.81
2022-12-11T04:17:52.086Z,94502.56
2022-12-11T04:20:39.214Z,94496.59
2022-12-11T04:23:24.545Z,94499.91
2022-12-11T04:25:52.419Z,94500.00
2022-12-11T04:28:20.200Z,94502.81
2022-12-11T04:30:49.938Z,94504.16
2022-12-11T04:33:17.831Z,94507.34
2022-12-11T04:35:47.076Z,94500.25
2022-12-11T04:38:15.011Z,94504.44
2022-12-11T04:40:42.844Z,94500.50
2022-12-11T04:43:10.889Z,94507.00
2022-12-11T04:45:38.715Z,94510.06
2022-12-11T04:48:06.763Z,94504.69
2022-12-11T04:50:34.596Z,94502.41
2022-12-11T04:53:04.000Z,94500.06
2022-12-11T04:55:31.819Z,94501.66
2022-12-11T04:57:59.652Z,94501.03
2022-12-11T05:00:27.508Z,94492.75
2022-12-11T05:02:55.657Z,94486.59
2022-12-11T05:05:23.481Z,94489.91
2022-12-11T05:07:51.387Z,94489.97
2022-12-11T05:10:20.708Z,94497.09
2022-12-11T05:12:48.583Z,94499.25
2022-12-11T05:15:16.482Z,94494.56
2022-12-11T05:17:44.402Z,94496.06
2022-12-11T05:20:12.565Z,94499.72
2022-12-11T05:22:40.599Z,94495.44
2022-12-11T05:25:09.366Z,94493.66
2022-12-11T05:27:38.812Z,94496.16
2022-12-11T05:30:07.468Z,94492.97
2022-12-11T05:32:36.083Z,94488.47
2022-12-11T05:35:04.824Z,94492.97
2022-12-11T05:37:33.851Z,94489.50
2022-12-11T05:40:01.950Z,94478.50
2022-12-11T05:42:29.791Z,94476.63
2022-12-11T05:44:59.030Z,94482.03
2022-12-11T05:47:26.860Z,94478.69
2022-12-11T05:49:54.632Z,94479.91
2022-12-11T05:52:22.788Z,94481.81
2022-12-11T05:54:51.084Z,94477.56
2022-12-11T05:57:18.935Z,94469.50
2022-12-11T05:59:46.776Z,94477.00
2022-12-11T06:02:16.061Z,94470.84
2022-12-11T06:04:44.068Z,94467.22
2022-12-11T06:07:12.060Z,94469.06
2022-12-11T06:09:39.838Z,94469.88
2022-12-11T06:12:07.751Z,94464.50
2022-12-11T06:14:35.596Z,94462.94
2022-12-11T06:17:04.343Z,94456.63
2022-12-11T06:19:37.073Z,94461.66
2022-12-11T06:22:05.444Z,94455.25
2022-12-11T06:24:33.494Z,94463.59
2022-12-11T06:27:01.415Z,94453.78
2022-12-11T06:29:29.344Z,94455.63
2022-12-11T06:31:57.228Z,94455.31
2022-12-11T06:34:25.392Z,94455.53
2022-12-11T06:36:54.659Z,94464.97
2022-12-11T06:39:22.788Z,94463.03
2022-12-11T06:41:50.917Z,94460.72
2022-12-11T06:44:18.854Z,94465.19
2022-12-11T06:46:46.884Z,94455.94
2022-12-11T06:49:14.684Z,94454.69
2022-12-11T06:51:42.568Z,94464.66
2022-12-11T06:54:11.935Z,94457.91
2022-12-11T06:56:40.553Z,94454.25
2022-12-11T06:59:12.030Z,94452.56
2022-12-11T07:01:40.938Z,94455.03
2022-12-11T07:04:10.291Z,94448.53
2022-12-11T07:06:38.190Z,94462.22
2022-12-11T07:09:06.977Z,94453.28
2022-12-11T07:11:36.532Z,94466.22
2022-12-11T07:14:04.571Z,94467.59
2022-12-11T07:16:32.603Z,94464.13
2022-12-11T07:19:00.440Z,94473.41
2022-12-11T07:21:28.548Z,94471.31
2022-12-11T07:23:56.393Z,94473.50
2022-12-11T07:26:24.253Z,94476.94
2022-12-11T07:28:53.918Z,94473.41
2022-12-11T07:31:23.025Z,94478.88
2022-12-11T07:33:54.456Z,94478.56
2022-12-11T07:36:22.506Z,94482.28
2022-12-11T07:38:50.548Z,94480.19
2022-12-11T07:41:19.099Z,94480.44
2022-12-11T07:43:55.270Z,94480.88
2022-12-11T07:46:24.265Z,94477.31
2022-12-11T07:48:52.109Z,94478.94
2022-12-11T07:51:22.802Z,94480.22
2022-12-11T07:53:51.102Z,94479.06
2022-12-11T07:56:19.387Z,94487.41
2022-12-11T07:58:47.553Z,94476.56
2022-12-11T08:01:17.819Z,94484.72
2022-12-11T08:03:46.266Z,94480.34
2022-12-11T08:06:14.116Z,94486.75
2022-12-11T08:08:42.653Z,94481.81
2022-12-11T08:11:11.533Z,94486.53
2022-12-11T08:13:39.535Z,94495.19
2022-12-11T08:16:07.907Z,94499.38
2022-12-11T08:18:37.635Z,94498.00
2022-12-11T08:21:06.269Z,94501.50
2022-12-11T08:23:34.356Z,94508.16
2022-12-11T08:26:03.979Z,94500.97
2022-12-11T08:28:32.043Z,94498.97
2022-12-11T08:31:00.647Z,94497.66
2022-12-11T08:33:28.622Z,94503.19
2022-12-11T08:35:57.954Z,94507.50
2022-12-11T08:38:25.881Z,94506.78
2022-12-11T08:40:54.047Z,94508.53
2022-12-11T08:43:21.854Z,94498.41
2022-12-11T08:45:49.895Z,94499.69
2022-12-11T08:48:17.836Z,94502.66
2022-12-11T08:50:45.803Z,94502.38
2022-12-11T08:53:15.065Z,94504.28
2022-12-11T08:55:43.156Z,94502.34
2022-12-11T08:58:11.323Z,94508.81
2022-12-11T09:00:39.141Z,94507.56
2022-12-11T09:03:12.663Z,94510.28
2022-12-11T09:05:41.210Z,94502.66
2022-12-11T09:08:09.015Z,94502.09
2022-12-11T09:10:38.290Z,94494.22
2022-12-11T09:13:06.242Z,94494.97
2022-12-11T09:15:34.121Z,94493.38
2022-12-11T09:18:01.997Z,94493.03
2022-12-11T09:20:29.848Z,94500.78
2022-12-11T09:22:57.800Z,94499.44
2022-12-11T09:25:25.889Z,94507.59
2022-12-11T09:27:55.258Z,94515.78
2022-12-11T09:30:23.161Z,94521.88
2022-12-11T09:32:51.096Z,94508.59
2022-12-11T09:35:19.335Z,94503.16
2022-12-11T09:37:48.046Z,94504.31
2022-12-11T09:40:16.097Z,94498.88
2022-12-11T09:42:50.756Z,94492.00
2022-12-11T09:45:21.329Z,94488.56
2022-12-11T09:47:51.344Z,94488.13
2022-12-11T09:50:21.992Z,94497.16
2022-12-11T09:52:56.913Z,94499.91
2022-12-11T09:55:27.499Z,94495.16
2022-12-11T09:58:00.150Z,94495.75
2022-12-11T10:00:33.691Z,94486.84
2022-12-11T10:03:19.260Z,94486.59
2022-12-11T10:05:51.388Z,94475.69
2022-12-11T10:08:23.083Z,94471.09
2022-12-11T10:10:55.259Z,94463.69
2022-12-11T10:13:29.752Z,94462.72
2022-12-11T10:16:01.346Z,94458.47
2022-12-11T10:18:31.001Z,94463.63
2022-12-11T10:21:02.632Z,94456.13
2022-12-11T10:23:35.611Z,94452.19
2022-12-11T10:26:07.379Z,94457.88
2022-12-11T10:28:35.695Z,94455.47
2022-12-11T10:31:12.015Z,94457.13
2022-12-11T10:33:45.565Z,94448.22
2022-12-11T10:36:16.877Z,94450.69
2022-12-11T10:38:45.892Z,94444.94
2022-12-11T10:41:15.091Z,94436.53
2022-12-11T10:43:44.359Z,94437.50
2022-12-11T10:46:18.123Z,94432.34
2022-12-11T10:48:46.863Z,94426.13
2022-12-11T10:51:15.372Z,94428.72
2022-12-11T10:53:44.749Z,94418.13
2022-12-11T10:56:12.859Z,94414.38
2022-12-11T10:58:49.828Z,94418.34
2022-12-11T11:01:21.189Z,94417.34
2022-12-11T11:03:59.805Z,94408.38
2022-12-11T11:06:28.463Z,94403.34
2022-12-11T11:08:57.530Z,94408.53
2022-12-11T11:11:28.173Z,94401.16
2022-12-11T11:14:06.454Z,94399.38
2022-12-11T11:16:38.550Z,94389.19
2022-12-11T11:19:06.941Z,94391.13
2022-12-11T11:21:36.499Z,94381.53
2022-12-11T11:24:04.888Z,94382.03
2022-12-11T11:27:11.292Z,94388.56
2022-12-11T11:29:26.708Z,94377.25
2022-12-11T11:31:56.231Z,94377.91
2022-12-11T11:34:26.278Z,94375.69
2022-12-11T11:36:58.023Z,94372.94
2022-12-11T11:39:30.393Z,94368.38
2022-12-11T11:42:01.619Z,94373.53
2022-12-11T11:44:31.937Z,94368.16
2022-12-11T11:47:04.169Z,94366.81
2022-12-11T11:49:46.821Z,94366.22
2022-12-11T11:52:16.986Z,94363.63
2022-12-11T11:54:49.388Z,94353.50
2022-12-11T11:57:20.129Z,94351.88
2022-12-11T11:59:50.689Z,94341.94
2022-12-11T12:02:20.827Z,94344.59
2022-12-11T12:04:51.303Z,94349.41
2022-12-11T12:07:25.352Z,94347.63
2022-12-11T12:09:56.893Z,94352.28
2022-12-11T12:12:34.419Z,94355.53
2022-12-11T12:15:07.495Z,94345.00
2022-12-11T12:17:43.179Z,94335.75
2022-12-11T12:20:15.207Z,94329.19
2022-12-11T12:22:52.603Z,94336.66
2022-12-11T12:25:26.325Z,94335.78
2022-12-11T12:27:59.016Z,94332.22
2022-12-11T12:30:30.111Z,94340.97
2022-12-11T12:33:08.615Z,94334.59
2022-12-11T12:35:37.535Z,94335.44
2022-12-11T12:38:08.200Z,94327.59
2022-12-11T12:40:39.811Z,94341.47
2022-12-11T12:43:23.476Z,94340.56
2022-12-11T12:45:55.090Z,94354.97
2022-12-11T12:48:26.056Z,94346.00
2022-12-11T12:50:54.069Z,94344.63
2022-12-11T12:53:24.481Z,94347.28
2022-12-11T12:55:52.832Z,94336.06
2022-12-11T12:58:25.987Z,94324.91
2022-12-11T13:00:54.126Z,94323.00
2022-12-11T13:03:23.064Z,94319.25
2022-12-11T13:05:58.994Z,94321.09
2022-12-11T13:08:28.905Z,94321.59
2022-12-11T13:11:02.127Z,94320.50
2022-12-11T13:13:35.530Z,94322.81
2022-12-11T13:16:08.105Z,94316.19
2022-12-11T13:18:37.845Z,94310.97
2022-12-11T13:21:20.596Z,94310.78
2022-12-11T13:23:50.116Z,94312.59
2022-12-11T13:26:28.942Z,94321.50
2022-12-11T13:28:58.205Z,94316.19
2022-12-11T13:31:29.600Z,94318.34
2022-12-11T13:33:58.703Z,94320.91
2022-12-11T13:36:28.479Z,94322.78
2022-12-11T13:38:59.588Z,94322.06
2022-12-11T13:41:28.517Z,94324.78
2022-12-11T13:43:56.557Z,94322.69
2022-12-11T13:46:26.500Z,94319.91
2022-12-11T13:48:57.167Z,94310.53
2022-12-11T13:51:25.967Z,94308.94
2022-12-11T13:54:05.322Z,94314.28
2022-12-11T13:56:34.254Z,94312.56
2022-12-11T13:59:02.520Z,94311.22
2022-12-11T14:01:33.078Z,94303.72
2022-12-11T14:04:03.230Z,94296.00
2022-12-11T14:06:31.622Z,94310.44
2022-12-11T14:09:00.941Z,94311.75
2022-12-11T14:11:31.380Z,94306.75
2022-12-11T14:14:00.923Z,94314.09
2022-12-11T14:16:29.206Z,94320.63
2022-12-11T14:19:00.860Z,94318.94
2022-12-11T14:21:28.921Z,94323.47
2022-12-11T14:23:57.699Z,94325.72
2022-12-11T14:26:26.642Z,94320.47
2022-12-11T14:28:56.242Z,94329.34
2022-12-11T14:31:27.359Z,94329.53
2022-12-11T14:33:57.412Z,94331.66
2022-12-11T14:36:25.497Z,94336.38
2022-12-11T14:39:15.594Z,94339.84
2022-12-11T14:41:47.038Z,94340.03
2022-12-11T14:44:18.220Z,94338.88
2022-12-11T14:46:47.395Z,94336.66
2022-12-11T14:49:19.046Z,94340.25
2022-12-11T14:51:47.669Z,94342.25
2022-12-11T14:54:20.513Z,94347.84
2022-12-11T14:56:48.638Z,94348.63
2022-12-11T14:59:19.389Z,94350.63
2022-12-11T15:01:57.889Z,94349.56
2022-12-11T15:04:28.768Z,94347.59
2022-12-11T15:06:57.041Z,94353.16
2022-12-11T15:09:27.365Z,94352.56
2022-12-11T15:11:56.801Z,94361.50
2022-12-11T15:14:26.963Z,94363.31
2022-12-11T15:16:57.295Z,94357.66
2022-12-11T15:19:28.877Z,94353.25
2022-12-11T15:22:02.213Z,94357.75
2022-12-11T15:24:36.360Z,94358.28
2022-12-11T15:27:06.476Z,94346.97
2022-12-11T15:29:37.678Z,94354.13
2022-12-11T15:32:18.619Z,94358.34
2022-12-11T15:34:47.911Z,94363.28
2022-12-11T15:37:20.262Z,94368.84
2022-12-11T15:39:48.273Z,94365.16
2022-12-11T15:42:17.591Z,94367.03
2022-12-11T15:44:47.114Z,94367.97
2022-12-11T15:47:15.401Z,94372.28
2022-12-11T15:49:43.363Z,94372.88
2022-12-11T15:52:11.460Z,94379.44
2022-12-11T15:54:39.448Z,94375.03
2022-12-11T15:57:08.091Z,94378.22
2022-12-11T15:59:36.151Z,94376.75
2022-12-11T16:02:05.414Z,94387.81
2022-12-11T16:04:34.090Z,94379.94
2022-12-11T16:07:02.687Z,94377.59
2022-12-11T16:09:30.550Z,94389.31
2022-12-11T16:11:58.346Z,94387.69
2022-12-11T16:14:26.176Z,94393.09
2022-12-11T16:16:54.094Z,94390.09
2022-12-11T16:19:23.347Z,94398.16
2022-12-11T16:21:53.213Z,94395.69
2022-12-11T16:24:20.983Z,94395.50
2022-12-11T16:26:48.956Z,94398.63
2022-12-11T16:29:16.802Z,94386.47
2022-12-11T16:31:44.733Z,94389.81
2022-12-11T16:34:12.638Z,94390.03
2022-12-11T16:36:41.797Z,94397.91
2022-12-11T16:39:11.856Z,94389.53
2022-12-11T16:41:40.228Z,94399.09
2022-12-11T16:44:08.261Z,94394.75
2022-12-11T16:46:36.110Z,94399.91
2022-12-11T16:49:03.900Z,94396.63
2022-12-11T16:51:31.855Z,94402.09
2022-12-11T16:54:00.934Z,94411.41
2022-12-11T16:56:28.958Z,94402.56
2022-12-11T16:58:57.416Z,94409.94
2022-12-11T17:01:25.526Z,94407.66
2022-12-11T17:03:53.340Z,94403.53
2022-12-11T17:06:21.670Z,94407.16
2022-12-11T17:08:49.713Z,94404.22
2022-12-11T17:11:19.870Z,94401.88
2022-12-11T17:13:47.856Z,94406.34
2022-12-11T17:16:16.771Z,94401.97
2022-12-11T17:18:44.702Z,94403.81
2022-12-11T17:21:13.901Z,94402.91
2022-12-11T17:23:42.289Z,94404.75
2022-12-11T17:26:10.514Z,94402.63
2022-12-11T17:28:40.225Z,94398.97
2022-12-11T17:31:09.460Z,94402.84
2022-12-11T17:33:38.776Z,94408.22
2022-12-11T17:36:07.795Z,94400.44
2022-12-11T17:38:35.816Z,94400.94
2022-12-11T17:41:06.465Z,94406.09
2022-12-11T17:43:34.373Z,94403.16
2022-12-11T17:46:04.050Z,94403.53
2022-12-11T17:48:32.034Z,94407.41
2022-12-11T17:51:03.959Z,94410.31
2022-12-11T17:53:32.668Z,94405.69
2022-12-11T17:56:01.181Z,94406.19
2022-12-11T17:58:29.915Z,94413.94
2022-12-11T18:00:59.275Z,94410.31
2022-12-11T18:03:29.343Z,94411.31
2022-12-11T18:05:58.536Z,94409.25
2022-12-11T18:08:27.318Z,94414.81
2022-12-11T18:10:55.403Z,94419.28
2022-12-11T18:13:23.993Z,94417.13
2022-12-11T18:16:00.367Z,94420.69
2022-12-11T18:18:29.754Z,94424.28
2022-12-11T18:20:57.626Z,94420.31
2022-12-11T18:23:25.474Z,94420.38
2022-12-11T18:25:53.973Z,94423.78
2022-12-11T18:28:21.783Z,94413.53
2022-12-11T18:30:49.744Z,94420.38
2022-12-11T18:33:17.641Z,94419.59
2022-12-11T18:35:46.839Z,94423.53
2022-12-11T18:38:14.611Z,94429.69
2022-12-11T18:40:42.863Z,94427.72
2022-12-11T18:43:11.143Z,94427.34
2022-12-11T18:45:40.126Z,94426.22
2022-12-11T18:48:09.007Z,94430.38
2022-12-11T18:50:36.944Z,94427.16
2022-12-11T18:53:06.146Z,94434.81
2022-12-11T18:55:34.258Z,94431.53
2022-12-11T18:58:02.507Z,94432.22
2022-12-11T19:00:30.535Z,94437.91
2022-12-11T19:02:58.707Z,94434.78
2022-12-11T19:05:27.960Z,94434.31
2022-12-11T19:07:55.942Z,94433.88
2022-12-11T19:10:26.275Z,94434.16
2022-12-11T19:12:54.152Z,94432.66
2022-12-11T19:15:23.934Z,94438.63
2022-12-11T19:17:52.123Z,94435.88
2022-12-11T19:23:07.839Z,94431.81
2022-12-11T19:25:42.803Z,94429.41
2022-12-11T19:28:10.795Z,94423.13
2022-12-11T19:30:43.254Z,94430.78
2022-12-11T19:33:11.243Z,94425.31
2022-12-11T19:35:39.209Z,94423.38
2022-12-11T19:38:08.475Z,94429.53
2022-12-11T19:40:40.927Z,94432.66
2022-12-11T19:43:09.009Z,94432.66
2022-12-11T19:45:37.315Z,94433.88
2022-12-11T19:48:05.619Z,94437.22
2022-12-11T19:50:36.261Z,94434.16
2022-12-11T19:53:04.525Z,94438.88
2022-12-11T19:55:33.028Z,94431.06
2022-12-11T19:58:02.471Z,94430.63
2022-12-11T20:00:30.314Z,94424.28
2022-12-11T20:02:58.266Z,94426.97
2022-12-11T20:05:26.125Z,94423.03
2022-12-11T20:07:54.475Z,94432.81
2022-12-11T20:10:22.719Z,94429.66
2022-12-11T20:12:50.728Z,94433.25
2022-12-11T20:15:20.526Z,94427.63
2022-12-11T20:17:48.413Z,94430.13
2022-12-11T20:20:16.268Z,94432.44
2022-12-11T20:22:44.641Z,94434.28
2022-12-11T20:25:15.323Z,94430.75
2022-12-11T20:27:43.165Z,94436.19
2022-12-11T20:30:11.590Z,94424.75
2022-12-11T20:32:41.049Z,94428.16
2022-12-11T20:35:09.496Z,94426.47
2022-12-11T20:37:37.548Z,94427.19
2022-12-11T20:40:06.516Z,94423.78
2022-12-11T20:42:34.702Z,94427.63
2022-12-11T20:45:04.445Z,94428.34
2022-12-11T20:47:32.399Z,94427.63
2022-12-11T20:50:01.911Z,94429.22
2022-12-11T20:52:30.129Z,94435.47
2022-12-11T20:54:58.088Z,94432.69
2022-12-11T20:57:26.066Z,94434.44
2022-12-11T20:59:53.997Z,94433.03
2022-12-11T21:02:22.015Z,94435.66
2022-12-11T21:04:50.587Z,94428.31
2022-12-11T21:07:20.420Z,94431.72
2022-12-11T21:09:48.344Z,94434.03
2022-12-11T21:12:16.268Z,94431.72
2022-12-11T21:14:44.259Z,94432.78
2022-12-11T21:17:12.029Z,94438.47
2022-12-11T21:19:40.096Z,94436.06
2022-12-11T21:22:07.989Z,94435.44
2022-12-11T21:24:38.991Z,94432.50
2022-12-11T21:27:06.863Z,94431.88
2022-12-11T21:29:34.796Z,94434.88
2022-12-11T21:32:02.886Z,94435.28
2022-12-11T21:34:30.784Z,94430.34
2022-12-11T21:36:58.720Z,94433.78
2022-12-11T21:39:28.218Z,94438.41
2022-12-11T21:41:58.168Z,94433.69
2022-12-11T21:45:31.482Z,94432.41
2022-12-11T21:47:14.104Z,94439.69
2022-12-11T21:49:41.922Z,94444.03
2022-12-11T21:52:09.834Z,94444.53
2022-12-11T21:54:38.805Z,94443.09
2022-12-11T21:57:08.224Z,94450.47
2022-12-11T21:59:36.337Z,94443.09
2022-12-11T22:02:04.562Z,94446.03
2022-12-11T22:04:32.577Z,94440.13
2022-12-11T22:07:00.540Z,94438.09
2022-12-11T22:09:28.533Z,94446.50
2022-12-11T22:11:58.543Z,94448.50
2022-12-11T22:14:28.331Z,94442.22
2022-12-11T22:16:56.218Z,94446.25
2022-12-11T22:19:27.835Z,94446.25
2022-12-11T22:21:58.746Z,94442.06
2022-12-11T22:24:26.645Z,94436.72
2022-12-11T22:26:54.822Z,94447.25
2022-12-11T22:29:22.736Z,94447.91
2022-12-11T22:31:52.874Z,94438.72
2022-12-11T22:34:20.675Z,94453.22
2022-12-11T22:36:48.614Z,94439.47
2022-12-11T22:39:16.671Z,94449.81
2022-12-11T22:41:44.735Z,94453.06
2022-12-11T22:44:14.608Z,94449.81
2022-12-11T22:46:48.206Z,94443.09
2022-12-11T22:49:19.027Z,94451.78
2022-12-11T22:51:46.960Z,94454.66
2022-12-11T22:54:14.894Z,94453.25
2022-12-11T22:56:42.774Z,94452.22
2022-12-11T22:59:10.549Z,94448.38
2022-12-11T23:01:38.272Z,94460.97
2022-12-11T23:04:06.466Z,94463.06
2022-12-11T23:06:35.611Z,94459.69
2022-12-11T23:09:05.045Z,94465.16
2022-12-11T23:11:34.845Z,94461.94
2022-12-11T23:14:03.134Z,94459.38
2022-12-11T23:16:31.054Z,94451.66
2022-12-11T23:18:59.251Z,94451.66
2022-12-11T23:21:28.005Z,94455.19
2022-12-11T23:23:57.975Z,94450.38
2022-12-11T23:26:27.231Z,94454.06
2022-12-11T23:28:55.531Z,94456.63
2022-12-11T23:31:24.003Z,94456.63
2022-12-11T23:33:51.982Z,94453.44
2022-12-11T23:36:19.995Z,94457.59
2022-12-11T23:38:54.126Z,94457.91
2022-12-11T23:41:24.084Z,94466.44
2022-12-11T23:43:52.224Z,94458.41
2022-12-11T23:46:22.240Z,94465.31
2022-12-11T23:48:50.629Z,94469.00
2022-12-11T23:51:19.448Z,94472.34
2022-12-11T23:53:47.691Z,94472.81
2022-12-11T23:56:17.130Z,94471.31
2022-12-11T23:58:46.871Z,94473.81
